createdAt,value
2023-03-29T00:00:14.639Z,100869.66
2023-03-29T00:03:04.454Z,100871.45
2023-03-29T00:05:36.508Z,100865.95
2023-03-29T00:08:05.495Z,100855.97
2023-03-29T00:10:34.795Z,100858.65
2023-03-29T00:13:03.582Z,100862.11
2023-03-29T00:15:32.283Z,100859.56
2023-03-29T00:18:01.065Z,100860.83
2023-03-29T00:20:29.732Z,100856.88
2023-03-29T00:22:58.946Z,100855.11
2023-03-29T00:25:27.409Z,100860.65
2023-03-29T00:27:56.102Z,100864.34
2023-03-29T00:30:25.076Z,100862.52
2023-03-29T00:32:53.713Z,100865.11
2023-03-29T00:35:22.387Z,100865.09
2023-03-29T00:37:51.176Z,100870.33
2023-03-29T00:40:20.250Z,100864.62
2023-03-29T00:42:49.026Z,100859.88
2023-03-29T00:45:23.548Z,100861.45
2023-03-29T00:47:57.316Z,100862.34
2023-03-29T00:50:32.693Z,100856.90
2023-03-29T00:53:11.295Z,100855.63
2023-03-29T00:55:56.487Z,100851.16
2023-03-29T00:58:38.075Z,100850.21
2023-03-29T01:01:09.244Z,100844.23
2023-03-29T01:03:46.929Z,100842.15
2023-03-29T01:06:17.516Z,100835.48
2023-03-29T01:08:51.839Z,100832.74
2023-03-29T01:11:36.283Z,100826.48
2023-03-29T01:14:11.176Z,100833.50
2023-03-29T01:16:39.786Z,100827.66
2023-03-29T01:19:10.980Z,100820.38
2023-03-29T01:21:48.153Z,100821.81
2023-03-29T01:24:28.249Z,100819.44
2023-03-29T01:27:18.542Z,100816.95
2023-03-29T01:29:54.469Z,100817.38
2023-03-29T01:32:36.945Z,100815.77
2023-03-29T01:35:13.649Z,100817.86
2023-03-29T01:37:58.821Z,100818.11
2023-03-29T01:40:28.641Z,100813.93
2023-03-29T01:43:03.078Z,100811.39
2023-03-29T01:45:37.992Z,100810.02
2023-03-29T01:48:18.849Z,100810.48
2023-03-29T01:51:01.924Z,100804.20
2023-03-29T01:53:38.761Z,100804.36
2023-03-29T01:56:12.887Z,100805.11
2023-03-29T01:58:46.887Z,100804.85
2023-03-29T02:01:19.702Z,100803.98
2023-03-29T02:03:51.234Z,100805.70
2023-03-29T02:06:24.093Z,100804.36
2023-03-29T02:08:53.807Z,100804.81
2023-03-29T02:11:24.443Z,100806.11
2023-03-29T02:13:54.395Z,100807.95
2023-03-29T02:16:23.542Z,100807.08
2023-03-29T02:18:54.498Z,100804.79
2023-03-29T02:21:52.252Z,100799.46
2023-03-29T02:24:22.381Z,100800.63
2023-03-29T02:26:51.267Z,100800.20
2023-03-29T02:29:19.845Z,100799.14
2023-03-29T02:32:06.356Z,100798.80
2023-03-29T02:34:39.644Z,100797.55
2023-03-29T02:37:15.907Z,100792.81
2023-03-29T02:39:44.740Z,100790.20
2023-03-29T02:42:17.611Z,100788.77
2023-03-29T02:44:47.746Z,100784.10
2023-03-29T02:47:17.095Z,100782.09
2023-03-29T02:49:46.084Z,100780.59
2023-03-29T02:52:17.750Z,100779.20
2023-03-29T02:54:48.276Z,100776.45
2023-03-29T02:57:17.165Z,100774.84
2023-03-29T02:59:45.845Z,100772.55
2023-03-29T03:02:14.511Z,100766.58
2023-03-29T03:04:43.630Z,100765.24
2023-03-29T03:07:12.415Z,100761.00
2023-03-29T03:09:41.506Z,100756.85
2023-03-29T03:12:10.605Z,100755.36
2023-03-29T03:14:39.908Z,100755.11
2023-03-29T03:17:08.497Z,100753.60
2023-03-29T03:19:37.171Z,100751.16
2023-03-29T03:22:06.475Z,100745.09
2023-03-29T03:24:36.279Z,100737.99
2023-03-29T03:27:05.581Z,100737.52
2023-03-29T03:29:34.285Z,100734.98
2023-03-29T03:32:23.279Z,100733.81
2023-03-29T03:35:07.983Z,100731.23
2023-03-29T03:37:36.684Z,100729.59
2023-03-29T03:40:09.644Z,100724.17
2023-03-29T03:42:39.742Z,100721.02
2023-03-29T03:45:10.148Z,100718.98
2023-03-29T03:48:01.045Z,100715.48
2023-03-29T03:50:58.613Z,100710.84
2023-03-29T03:53:32.685Z,100714.50
2023-03-29T03:56:16.827Z,100712.44
2023-03-29T03:59:11.430Z,100710.99
2023-03-29T04:01:51.263Z,100705.11
2023-03-29T04:04:21.405Z,100706.48
2023-03-29T04:07:13.528Z,100708.14
2023-03-29T04:09:57.267Z,100708.18
2023-03-29T04:12:46.459Z,100705.30
2023-03-29T04:15:15.117Z,100702.77
2023-03-29T04:17:48.261Z,100706.96
2023-03-29T04:20:30.099Z,100701.23
2023-03-29T04:22:58.898Z,100694.78
2023-03-29T04:25:27.796Z,100691.50
2023-03-29T04:28:14.355Z,100697.72
2023-03-29T04:30:51.526Z,100699.80
2023-03-29T04:33:43.374Z,100699.75
2023-03-29T04:36:14.240Z,100699.13
2023-03-29T04:38:47.342Z,100697.58
2023-03-29T04:41:16.918Z,100697.42
2023-03-29T04:43:58.627Z,100697.38
2023-03-29T04:46:28.907Z,100699.77
2023-03-29T04:49:17.016Z,100702.54
2023-03-29T04:51:48.747Z,100703.21
2023-03-29T04:54:20.002Z,100704.48
2023-03-29T04:57:02.474Z,100701.00
2023-03-29T04:59:37.441Z,100700.00
2023-03-29T05:02:14.421Z,100701.46
2023-03-29T05:04:44.320Z,100698.30
2023-03-29T05:07:18.009Z,100697.95
2023-03-29T05:09:47.712Z,100698.69
2023-03-29T05:12:16.506Z,100696.64
2023-03-29T05:14:54.450Z,100692.80
2023-03-29T05:17:27.897Z,100692.85
2023-03-29T05:20:10.333Z,100697.08
2023-03-29T05:22:40.712Z,100694.48
2023-03-29T05:25:14.229Z,100691.49
2023-03-29T05:27:46.213Z,100692.24
2023-03-29T05:30:15.656Z,100692.27
2023-03-29T05:33:02.861Z,100691.91
2023-03-29T05:35:32.136Z,100693.26
2023-03-29T05:38:01.236Z,100689.13
2023-03-29T05:40:29.915Z,100686.13
2023-03-29T05:43:25.335Z,100685.16
2023-03-29T05:45:55.746Z,100682.59
2023-03-29T05:48:26.078Z,100680.86
2023-03-29T05:50:56.713Z,100680.48
2023-03-29T05:53:27.648Z,100686.49
2023-03-29T05:55:57.778Z,100688.47
2023-03-29T05:58:28.913Z,100687.71
2023-03-29T06:01:00.875Z,100684.71
2023-03-29T06:03:38.985Z,100682.86
2023-03-29T06:06:09.941Z,100678.88
2023-03-29T06:08:38.702Z,100673.67
2023-03-29T06:11:30.943Z,100669.34
2023-03-29T06:14:18.071Z,100666.15
2023-03-29T06:16:51.718Z,100664.49
2023-03-29T06:19:20.751Z,100663.52
2023-03-29T06:21:49.349Z,100667.45
2023-03-29T06:24:21.097Z,100665.02
2023-03-29T06:26:53.794Z,100661.89
2023-03-29T06:29:22.988Z,100662.27
2023-03-29T06:31:51.960Z,100665.42
2023-03-29T06:34:50.287Z,100665.43
2023-03-29T06:37:55.099Z,100668.50
2023-03-29T06:40:44.979Z,100668.71
2023-03-29T06:43:14.568Z,100662.50
2023-03-29T06:45:55.984Z,100662.80
2023-03-29T06:48:33.383Z,100663.27
2023-03-29T06:51:02.525Z,100652.50
2023-03-29T06:53:33.175Z,100649.69
2023-03-29T06:56:09.564Z,100648.55
2023-03-29T06:58:41.300Z,100644.83
2023-03-29T07:01:30.299Z,100642.60
2023-03-29T07:04:08.417Z,100645.43
2023-03-29T07:06:59.176Z,100647.98
2023-03-29T07:12:45.292Z,100646.34
2023-03-29T07:15:14.665Z,100650.93
2023-03-29T07:18:12.956Z,100654.27
2023-03-29T07:20:42.904Z,100654.17
2023-03-29T07:23:12.162Z,100652.25
2023-03-29T07:25:41.474Z,100652.91
2023-03-29T07:28:11.593Z,100651.05
2023-03-29T07:30:40.989Z,100643.92
2023-03-29T07:33:14.837Z,100642.10
2023-03-29T07:35:55.717Z,100645.89
2023-03-29T07:38:25.892Z,100651.04
2023-03-29T07:41:00.788Z,100653.14
2023-03-29T07:43:32.265Z,100650.48
2023-03-29T07:46:05.896Z,100646.95
2023-03-29T07:48:37.532Z,100644.95
2023-03-29T07:51:08.579Z,100643.75
2023-03-29T07:53:50.369Z,100643.20
2023-03-29T07:56:38.218Z,100645.68
2023-03-29T07:59:30.032Z,100641.49
2023-03-29T08:02:12.225Z,100635.34
2023-03-29T08:04:47.332Z,100633.64
2023-03-29T08:07:22.308Z,100632.94
2023-03-29T08:09:53.654Z,100636.03
2023-03-29T08:12:26.007Z,100632.70
2023-03-29T08:14:57.390Z,100634.19
2023-03-29T08:17:32.435Z,100625.17
2023-03-29T08:20:04.499Z,100621.80
2023-03-29T08:22:34.606Z,100622.83
2023-03-29T08:25:30.090Z,100620.63
2023-03-29T08:27:59.606Z,100614.39
2023-03-29T08:30:50.115Z,100614.27
2023-03-29T08:33:19.371Z,100613.00
2023-03-29T08:35:52.233Z,100609.23
2023-03-29T08:38:24.238Z,100610.02
2023-03-29T08:40:53.149Z,100603.31
2023-03-29T08:43:32.374Z,100608.98
2023-03-29T08:46:28.968Z,100607.02
2023-03-29T08:49:04.132Z,100602.71
2023-03-29T08:51:37.842Z,100607.85
2023-03-29T08:54:11.714Z,100605.17
2023-03-29T08:57:03.727Z,100605.89
2023-03-29T08:59:37.903Z,100604.17
2023-03-29T09:02:18.380Z,100606.98
2023-03-29T09:04:51.247Z,100601.83
2023-03-29T09:07:43.188Z,100599.28
2023-03-29T09:10:18.281Z,100599.89
2023-03-29T09:13:02.850Z,100599.84
2023-03-29T09:15:58.480Z,100601.02
2023-03-29T09:19:07.011Z,100595.73
2023-03-29T09:21:44.806Z,100588.27
2023-03-29T09:24:27.151Z,100586.52
2023-03-29T09:27:05.685Z,100587.60
2023-03-29T09:29:59.810Z,100581.39
2023-03-29T09:32:52.494Z,100573.63
2023-03-29T09:35:30.559Z,100572.46
2023-03-29T09:37:59.862Z,100567.64
2023-03-29T09:40:35.099Z,100563.73
2023-03-29T09:43:14.143Z,100558.06
2023-03-29T09:45:44.256Z,100556.14
2023-03-29T09:48:18.256Z,100557.35
2023-03-29T09:50:54.624Z,100556.14
2023-03-29T09:53:24.436Z,100557.83
2023-03-29T09:56:07.250Z,100555.00
2023-03-29T09:58:58.661Z,100558.13
2023-03-29T10:01:37.486Z,100550.79
2023-03-29T10:04:08.750Z,100549.42
2023-03-29T10:06:50.860Z,100545.39
2023-03-29T10:09:25.055Z,100539.77
2023-03-29T10:12:02.487Z,100533.55
2023-03-29T10:14:41.782Z,100529.66
2023-03-29T10:17:24.737Z,100523.48
2023-03-29T10:19:58.321Z,100521.06
2023-03-29T10:22:32.659Z,100519.95
2023-03-29T10:25:01.526Z,100520.46
2023-03-29T10:27:32.432Z,100515.48
2023-03-29T10:30:08.504Z,100514.83
2023-03-29T10:32:38.452Z,100515.08
2023-03-29T10:35:23.994Z,100514.46
2023-03-29T10:37:54.220Z,100513.84
2023-03-29T10:40:26.796Z,100513.34
2023-03-29T10:42:59.724Z,100510.63
2023-03-29T10:45:35.412Z,100500.40
2023-03-29T10:48:05.275Z,100495.31
2023-03-29T10:50:35.932Z,100489.00
2023-03-29T10:53:13.358Z,100491.08
2023-03-29T10:55:52.832Z,100490.86
2023-03-29T10:58:34.904Z,100493.65
2023-03-29T11:01:04.436Z,100484.72
2023-03-29T11:03:59.293Z,100479.41
2023-03-29T11:06:44.790Z,100472.25
2023-03-29T11:09:42.378Z,100472.66
2023-03-29T11:12:53.957Z,100473.84
2023-03-29T11:15:27.641Z,100478.70
2023-03-29T11:18:19.061Z,100474.86
2023-03-29T11:21:24.506Z,100470.40
2023-03-29T11:24:02.215Z,100465.45
2023-03-29T11:26:43.689Z,100462.83
2023-03-29T11:29:23.200Z,100454.63
2023-03-29T11:32:44.332Z,100449.90
2023-03-29T11:35:34.052Z,100443.48
2023-03-29T11:38:12.438Z,100441.32
2023-03-29T11:41:01.773Z,100438.27
2023-03-29T11:43:31.521Z,100431.55
2023-03-29T11:46:10.632Z,100424.00
2023-03-29T11:48:46.710Z,100421.75
2023-03-29T11:51:28.321Z,100414.63
2023-03-29T11:54:00.062Z,100401.84
2023-03-29T11:56:47.589Z,100401.65
2023-03-29T11:59:38.296Z,100399.41
2023-03-29T12:02:19.449Z,100395.90
2023-03-29T12:04:54.306Z,100395.20
2023-03-29T12:07:45.010Z,100390.08
2023-03-29T12:10:31.850Z,100389.92
2023-03-29T12:13:15.950Z,100384.09
2023-03-29T12:15:50.986Z,100388.91
2023-03-29T12:18:31.180Z,100393.75
2023-03-29T12:21:01.876Z,100389.30
2023-03-29T12:23:33.870Z,100385.99
2023-03-29T12:26:16.765Z,100383.81
2023-03-29T12:29:09.933Z,100377.65
2023-03-29T12:31:52.580Z,100377.70
2023-03-29T12:34:56.657Z,100368.13
2023-03-29T12:38:08.765Z,100358.93
2023-03-29T12:41:04.435Z,100358.71
2023-03-29T12:43:52.204Z,100358.00
2023-03-29T12:46:44.183Z,100353.63
2023-03-29T12:49:27.777Z,100350.64
2023-03-29T12:51:59.144Z,100348.13
2023-03-29T12:54:34.258Z,100342.90
2023-03-29T12:57:24.488Z,100337.11
2023-03-29T12:59:53.799Z,100329.70
2023-03-29T13:02:22.475Z,100336.08
2023-03-29T13:04:54.287Z,100330.39
2023-03-29T13:07:23.184Z,100327.92
2023-03-29T13:10:03.953Z,100325.40
2023-03-29T13:12:35.509Z,100322.29
2023-03-29T13:15:24.099Z,100322.48
2023-03-29T13:17:52.659Z,100318.20
2023-03-29T13:20:27.366Z,100319.09
2023-03-29T13:23:17.638Z,100317.48
2023-03-29T13:25:52.538Z,100315.52
2023-03-29T13:28:46.596Z,100307.95
2023-03-29T13:31:33.703Z,100308.16
2023-03-29T13:34:05.961Z,100313.34
2023-03-29T13:36:47.033Z,100316.11
2023-03-29T13:39:22.967Z,100314.52
2023-03-29T13:41:53.846Z,100312.59
2023-03-29T13:44:22.942Z,100305.90
2023-03-29T13:47:03.992Z,100302.36
2023-03-29T13:49:35.528Z,100306.59
2023-03-29T13:52:25.331Z,100297.87
2023-03-29T13:54:58.775Z,100293.39
2023-03-29T13:57:41.858Z,100290.05
2023-03-29T14:00:23.547Z,100291.42
2023-03-29T14:03:06.472Z,100293.52
2023-03-29T14:05:58.268Z,100292.00
2023-03-29T14:08:30.785Z,100293.39
2023-03-29T14:11:07.344Z,100295.77
2023-03-29T14:13:36.116Z,100289.69
2023-03-29T14:16:10.628Z,100288.52
2023-03-29T14:18:46.831Z,100288.80
2023-03-29T14:21:16.098Z,100285.30
2023-03-29T14:23:47.159Z,100287.71
2023-03-29T14:26:22.282Z,100290.71
2023-03-29T14:28:57.146Z,100288.25
2023-03-29T14:31:37.294Z,100290.52
2023-03-29T14:34:19.208Z,100293.77
2023-03-29T14:36:49.308Z,100291.39
2023-03-29T14:39:21.132Z,100288.81
2023-03-29T14:41:55.294Z,100284.13
2023-03-29T14:44:27.497Z,100278.45
2023-03-29T14:46:56.398Z,100274.95
2023-03-29T14:49:25.291Z,100268.00
2023-03-29T14:51:55.408Z,100263.11
2023-03-29T14:54:29.940Z,100254.73
2023-03-29T14:56:59.904Z,100263.16
2023-03-29T14:59:36.886Z,100256.05
2023-03-29T15:02:23.328Z,100250.70
2023-03-29T15:05:17.218Z,100241.23
2023-03-29T15:07:46.316Z,100244.59
2023-03-29T15:10:19.816Z,100242.48
2023-03-29T15:12:50.137Z,100236.66
2023-03-29T15:15:19.450Z,100242.67
2023-03-29T15:17:52.322Z,100244.13
2023-03-29T15:20:35.476Z,100236.75
2023-03-29T15:23:08.125Z,100237.56
2023-03-29T15:25:39.645Z,100238.98
2023-03-29T15:28:43.087Z,100238.79
2023-03-29T15:31:15.114Z,100237.25
2023-03-29T15:33:44.130Z,100236.04
2023-03-29T15:36:14.462Z,100240.65
2023-03-29T15:38:45.368Z,100249.00
2023-03-29T15:41:14.894Z,100250.54
2023-03-29T15:43:43.785Z,100257.44
2023-03-29T15:46:17.230Z,100257.70
2023-03-29T15:48:46.375Z,100261.66
2023-03-29T15:51:15.446Z,100255.77
2023-03-29T15:53:44.494Z,100256.09
2023-03-29T15:56:18.496Z,100250.91
2023-03-29T15:58:48.952Z,100247.10
2023-03-29T16:01:34.616Z,100239.78
2023-03-29T16:04:11.736Z,100240.90
2023-03-29T16:06:41.415Z,100245.25
2023-03-29T16:09:12.434Z,100251.69
2023-03-29T16:11:42.957Z,100261.97
2023-03-29T16:14:33.587Z,100256.98
2023-03-29T16:17:06.707Z,100252.27
2023-03-29T16:19:35.625Z,100253.59
2023-03-29T16:22:08.156Z,100251.92
2023-03-29T16:24:37.190Z,100250.39
2023-03-29T16:27:06.408Z,100247.00
2023-03-29T16:29:38.658Z,100246.09
2023-03-29T16:32:07.596Z,100254.02
2023-03-29T16:34:36.430Z,100255.00
2023-03-29T16:37:05.243Z,100256.58
2023-03-29T16:39:34.998Z,100262.30
2023-03-29T16:42:04.266Z,100252.69
2023-03-29T16:44:33.121Z,100248.62
2023-03-29T16:47:02.756Z,100246.89
2023-03-29T16:49:32.375Z,100248.58
2023-03-29T16:52:01.353Z,100246.53
2023-03-29T16:54:32.057Z,100247.89
2023-03-29T16:57:00.948Z,100248.66
2023-03-29T16:59:30.090Z,100249.70
2023-03-29T17:01:58.880Z,100248.40
2023-03-29T17:04:29.631Z,100242.95
2023-03-29T17:06:58.876Z,100236.73
2023-03-29T17:09:29.824Z,100236.09
2023-03-29T17:11:59.673Z,100239.05
2023-03-29T17:14:28.836Z,100236.05
2023-03-29T17:16:58.046Z,100230.23
2023-03-29T17:19:27.418Z,100233.23
2023-03-29T17:21:57.970Z,100231.58
2023-03-29T17:24:26.951Z,100231.44
2023-03-29T17:26:56.663Z,100232.87
2023-03-29T17:29:27.383Z,100230.41
2023-03-29T17:31:56.913Z,100228.31
2023-03-29T17:34:29.803Z,100226.39
2023-03-29T17:36:59.635Z,100225.54
2023-03-29T17:39:29.809Z,100231.86
2023-03-29T17:41:58.899Z,100229.66
2023-03-29T17:44:28.883Z,100229.17
2023-03-29T17:46:58.488Z,100229.65
2023-03-29T17:49:31.893Z,100229.23
2023-03-29T17:52:01.765Z,100232.83
2023-03-29T17:54:32.052Z,100230.58
2023-03-29T17:57:01.777Z,100231.02
2023-03-29T17:59:32.563Z,100229.08
2023-03-29T18:02:06.337Z,100226.80
2023-03-29T18:04:37.181Z,100231.38
2023-03-29T18:07:11.806Z,100230.20
2023-03-29T18:09:53.574Z,100235.60
2023-03-29T18:12:26.368Z,100237.95
2023-03-29T18:15:00.418Z,100240.27
2023-03-29T18:17:30.639Z,100240.41
2023-03-29T18:20:00.587Z,100244.51
2023-03-29T18:22:36.656Z,100241.69
2023-03-29T18:25:10.390Z,100242.25
2023-03-29T18:27:41.038Z,100241.52
2023-03-29T18:30:12.429Z,100247.63
2023-03-29T18:32:43.097Z,100246.52
2023-03-29T18:35:14.105Z,100247.77
2023-03-29T18:37:44.878Z,100243.85
2023-03-29T18:40:17.563Z,100239.96
2023-03-29T18:42:53.609Z,100240.98
2023-03-29T18:45:22.878Z,100245.40
2023-03-29T18:47:55.021Z,100239.54
2023-03-29T18:50:25.816Z,100234.71
2023-03-29T18:52:59.452Z,100236.73
2023-03-29T18:55:33.021Z,100240.16
2023-03-29T18:58:04.149Z,100236.95
2023-03-29T19:00:37.532Z,100234.60
2023-03-29T19:03:08.805Z,100237.01
2023-03-29T19:05:40.273Z,100237.88
2023-03-29T19:08:12.224Z,100233.73
2023-03-29T19:10:43.608Z,100229.33
2023-03-29T19:13:15.334Z,100225.82
2023-03-29T19:15:50.691Z,100226.08
2023-03-29T19:18:27.863Z,100227.37
2023-03-29T19:20:59.045Z,100226.98
2023-03-29T19:23:31.816Z,100225.50
2023-03-29T19:26:06.526Z,100227.04
2023-03-29T19:28:42.738Z,100225.16
2023-03-29T19:31:18.613Z,100221.73
2023-03-29T19:33:49.356Z,100222.78
2023-03-29T19:36:23.076Z,100222.14
2023-03-29T19:38:55.347Z,100216.34
2023-03-29T19:41:27.623Z,100212.99
2023-03-29T19:43:58.199Z,100218.32
2023-03-29T19:46:29.749Z,100216.93
2023-03-29T19:49:02.667Z,100216.24
2023-03-29T19:51:37.073Z,100214.05
2023-03-29T19:54:09.637Z,100208.35
2023-03-29T19:56:41.273Z,100207.02
2023-03-29T19:59:19.061Z,100206.30
2023-03-29T20:01:52.466Z,100203.28
2023-03-29T20:04:23.494Z,100202.17
2023-03-29T20:06:53.550Z,100195.56
2023-03-29T20:09:24.649Z,100194.06
2023-03-29T20:11:54.455Z,100192.19
2023-03-29T20:14:24.372Z,100193.10
2023-03-29T20:16:54.854Z,100190.64
2023-03-29T20:19:26.379Z,100190.86
2023-03-29T20:21:57.853Z,100189.38
2023-03-29T20:24:28.759Z,100189.52
2023-03-29T20:26:59.058Z,100185.94
2023-03-29T20:29:28.790Z,100181.98
2023-03-29T20:31:59.251Z,100182.71
2023-03-29T20:34:28.751Z,100178.70
2023-03-29T20:37:02.598Z,100178.45
2023-03-29T20:39:32.019Z,100181.25
2023-03-29T20:42:01.265Z,100181.79
2023-03-29T20:44:33.541Z,100180.90
2023-03-29T20:47:05.476Z,100179.60
2023-03-29T20:49:39.546Z,100178.31
2023-03-29T20:52:13.185Z,100177.50
2023-03-29T20:54:43.122Z,100179.94
2023-03-29T20:57:15.029Z,100177.33
2023-03-29T20:59:44.604Z,100169.72
2023-03-29T21:02:17.493Z,100165.25
2023-03-29T21:04:50.306Z,100163.96
2023-03-29T21:07:20.676Z,100161.52
2023-03-29T21:09:50.522Z,100152.38
2023-03-29T21:12:20.704Z,100152.96
2023-03-29T21:14:49.796Z,100150.04
2023-03-29T21:17:18.676Z,100142.91
2023-03-29T21:19:47.574Z,100141.16
2023-03-29T21:22:17.163Z,100136.05
2023-03-29T21:24:45.958Z,100132.73
2023-03-29T21:27:14.856Z,100134.16
2023-03-29T21:29:43.754Z,100134.79
2023-03-29T21:32:12.451Z,100133.34
2023-03-29T21:34:41.614Z,100132.07
2023-03-29T21:37:11.347Z,100125.52
2023-03-29T21:39:41.967Z,100127.87
2023-03-29T21:42:11.172Z,100129.02
2023-03-29T21:44:40.059Z,100123.67
2023-03-29T21:47:09.647Z,100120.48
2023-03-29T21:49:38.443Z,100120.39
2023-03-29T21:52:08.365Z,100113.46
2023-03-29T21:54:38.272Z,100111.39
2023-03-29T21:57:07.106Z,100109.98
2023-03-29T21:59:36.056Z,100107.56
2023-03-29T22:02:04.770Z,100107.11
2023-03-29T22:04:36.503Z,100103.84
2023-03-29T22:07:06.932Z,100101.82
2023-03-29T22:09:35.715Z,100108.99
2023-03-29T22:12:05.410Z,100103.80
2023-03-29T22:14:38.494Z,100100.25
2023-03-29T22:17:07.421Z,100093.31
2023-03-29T22:19:40.518Z,100089.53
2023-03-29T22:22:14.063Z,100084.87
2023-03-29T22:24:42.994Z,100086.20
2023-03-29T22:27:12.293Z,100084.45
2023-03-29T22:29:41.663Z,100078.50
2023-03-29T22:32:11.042Z,100074.58
2023-03-29T22:34:40.278Z,100075.45
2023-03-29T22:37:09.924Z,100068.08
2023-03-29T22:39:38.603Z,100063.90
2023-03-29T22:42:09.150Z,100063.91
2023-03-29T22:44:37.897Z,100064.95
2023-03-29T22:47:07.515Z,100063.27
2023-03-29T22:49:36.409Z,100056.74
2023-03-29T22:52:05.588Z,100058.78
2023-03-29T22:54:34.172Z,100058.69
2023-03-29T22:57:02.873Z,100057.95
2023-03-29T22:59:33.826Z,100055.56
2023-03-29T23:02:06.547Z,100054.89
2023-03-29T23:04:37.032Z,100055.69
2023-03-29T23:07:06.805Z,100052.61
2023-03-29T23:09:35.599Z,100050.75
2023-03-29T23:12:04.667Z,100046.40
2023-03-29T23:14:34.400Z,100047.79
2023-03-29T23:17:03.106Z,100047.93
2023-03-29T23:19:32.202Z,100038.25
2023-03-29T23:22:01.398Z,100036.92
2023-03-29T23:24:31.102Z,100032.66
2023-03-29T23:27:01.515Z,100034.11
2023-03-29T23:29:30.216Z,100033.36
2023-03-29T23:32:00.046Z,100033.48
2023-03-29T23:34:28.907Z,100034.33
2023-03-29T23:36:57.692Z,100032.95
2023-03-29T23:39:26.575Z,100030.14
2023-03-29T23:41:55.372Z,100029.30
2023-03-29T23:44:24.079Z,100028.81
2023-03-29T23:46:53.446Z,100029.61
2023-03-29T23:49:23.299Z,100026.46
2023-03-29T23:51:52.050Z,100023.73
2023-03-29T23:54:20.967Z,100017.40
2023-03-29T23:56:49.647Z,100010.50
2023-03-29T23:59:18.530Z,100011.33
